weather.gov     
National Weather Service

Terminal Aerodrome Forecast
NWS Homepage
This page is being discontinued on March 12, 2014.
The same data is available at this site. Please update your bookmarks.
Thank you, and we apologize for the inconvenience.
Please send an email to SR-SRH.Webmaster@noaa.gov with any concerns.


Current Version
Previous Version:    01  02  03  04  05  06  07  08  09  10  11  12  13  14  15  16  17  18  19  20  21  22  23  24  25  26  27  28  29  30  
   31  32  33  34  35  
[Printable]
106
FTUS42 KFFC 310800 AAA
TAFMCN
TAF AMD
KMCN 310845Z 3109/0106 VRB03KT P6SM SCT005 BKN100
      TEMPO 3109/3111 4SM BR BKN004
     FM311100 00000KT 4SM BR SCT010 SCT150
     FM311400 23003KT P6SM SCT020 SCT150
     FM311800 23005KT P6SM BKN050 PROB30 3120/3124 6SM TSRA BKN050CB
     FM010100 00000KT P6SM SCT050=


U.S. Dept. of Commerce
NOAA National Weather Service
1325 East West Highway
Silver Spring, MD 20910
E-mail: w-nws.webmaster@noaa.gov
Page last modified: May 16, 2007
NATIONAL WEATHER SERVICE: for Safety, for Work, for Fun - FOR LIFE